createdAt,value
2023-02-26T00:03:53.624Z,66.71
2023-02-26T00:07:55.752Z,67.23
2023-02-26T00:11:59.021Z,67.97
2023-02-26T00:16:01.672Z,68.40
2023-02-26T00:20:05.730Z,68.02
2023-02-26T00:24:08.197Z,67.70
2023-02-26T00:28:10.618Z,67.88
2023-02-26T00:32:13.083Z,68.28
2023-02-26T00:36:21.654Z,68.23
2023-02-26T00:40:50.065Z,67.87
2023-02-26T00:44:52.702Z,68.00
2023-02-26T00:49:08.221Z,68.24
2023-02-26T00:53:21.664Z,67.85
2023-02-26T00:57:23.738Z,68.37
2023-02-26T01:01:25.778Z,71.58
2023-02-26T01:05:28.133Z,69.92
2023-02-26T01:09:38.081Z,70.37
2023-02-26T01:13:40.250Z,70.89
2023-02-26T01:18:06.504Z,72.90
2023-02-26T01:22:23.053Z,73.51
2023-02-26T01:26:28.079Z,73.90
2023-02-26T01:30:30.961Z,74.45
2023-02-26T01:34:35.808Z,74.49
2023-02-26T01:38:59.701Z,75.06
2023-02-26T01:43:18.170Z,75.11
2023-02-26T01:47:41.535Z,75.81
2023-02-26T01:51:56.879Z,76.02
2023-02-26T01:56:04.701Z,76.64
2023-02-26T02:00:08.119Z,76.95
2023-02-26T02:04:16.116Z,76.66
2023-02-26T02:08:20.060Z,77.97
2023-02-26T02:12:35.194Z,78.49
2023-02-26T02:16:40.276Z,79.58
2023-02-26T02:21:25.391Z,79.50
2023-02-26T02:26:04.952Z,80.19
2023-02-26T02:30:30.358Z,80.25
2023-02-26T02:34:48.005Z,79.26
2023-02-26T02:39:07.552Z,79.34
2023-02-26T02:43:15.788Z,79.23
2023-02-26T02:47:21.773Z,79.19
2023-02-26T02:51:29.130Z,79.73
2023-02-26T02:55:36.806Z,79.58
2023-02-26T02:59:51.300Z,79.64
2023-02-26T03:04:02.978Z,80.19
2023-02-26T03:08:10.791Z,80.94
2023-02-26T03:12:12.968Z,82.12
2023-02-26T03:16:38.529Z,80.86
2023-02-26T03:20:55.960Z,79.98
2023-02-26T03:25:04.695Z,79.72
2023-02-26T03:29:16.238Z,79.79
2023-02-26T03:33:27.396Z,80.14
2023-02-26T03:37:40.843Z,79.98
2023-02-26T03:41:49.711Z,79.93
2023-02-26T03:45:56.897Z,80.16
2023-02-26T03:50:08.665Z,79.69
2023-02-26T03:54:26.591Z,79.61
2023-02-26T03:58:42.936Z,79.12
2023-02-26T04:03:09.216Z,79.44
2023-02-26T04:07:14.329Z,79.70
2023-02-26T04:11:19.234Z,79.73
2023-02-26T04:15:21.267Z,80.19
2023-02-26T04:19:23.527Z,79.69
2023-02-26T04:23:26.047Z,80.65
2023-02-26T04:27:28.183Z,80.94
2023-02-26T04:31:30.594Z,81.31
2023-02-26T04:35:33.620Z,80.34
2023-02-26T04:39:35.648Z,81.04
2023-02-26T04:43:37.971Z,80.65
2023-02-26T04:47:56.371Z,80.77
2023-02-26T04:51:59.149Z,82.25
2023-02-26T04:56:01.213Z,82.17
2023-02-26T05:00:07.431Z,81.44
2023-02-26T05:04:11.995Z,80.40
2023-02-26T05:08:16.150Z,80.89
2023-02-26T05:12:18.231Z,80.35
2023-02-26T05:16:20.358Z,80.42
2023-02-26T05:20:22.472Z,80.28
2023-02-26T05:24:24.555Z,80.40
2023-02-26T05:28:27.139Z,80.00
2023-02-26T05:32:29.284Z,80.56
2023-02-26T05:36:32.134Z,79.84
2023-02-26T05:40:34.490Z,79.30
2023-02-26T05:44:36.552Z,79.59
2023-02-26T05:48:38.546Z,78.06
2023-02-26T05:52:40.596Z,79.16
2023-02-26T05:56:42.674Z,77.95
2023-02-26T06:00:44.714Z,78.46
2023-02-26T06:04:46.921Z,78.41
2023-02-26T06:08:48.943Z,78.24
2023-02-26T06:12:50.978Z,77.58
2023-02-26T06:16:53.047Z,87.21
2023-02-26T06:20:55.036Z,78.27
2023-02-26T06:24:57.056Z,76.10
2023-02-26T06:28:59.064Z,77.06
2023-02-26T06:33:01.512Z,77.69
2023-02-26T06:37:03.510Z,77.90
2023-02-26T06:41:05.779Z,78.70
2023-02-26T06:45:08.437Z,79.09
2023-02-26T06:49:10.452Z,80.11
2023-02-26T06:53:12.527Z,80.52
2023-02-26T06:57:14.567Z,80.11
2023-02-26T07:01:17.056Z,79.67
2023-02-26T07:05:19.238Z,79.46
2023-02-26T07:09:21.304Z,80.00
2023-02-26T07:13:23.382Z,79.76
2023-02-26T07:17:25.486Z,78.50
2023-02-26T07:21:27.634Z,78.83
2023-02-26T07:25:29.925Z,77.93
2023-02-26T07:29:31.921Z,77.88
2023-02-26T07:33:35.038Z,77.31
2023-02-26T07:37:37.092Z,76.82
2023-02-26T07:41:39.119Z,76.13
2023-02-26T07:45:53.654Z,75.32
2023-02-26T07:49:56.293Z,74.54
2023-02-26T07:53:58.295Z,74.37
2023-02-26T07:58:00.350Z,74.71
2023-02-26T08:02:02.380Z,73.80
2023-02-26T08:06:05.250Z,73.17
2023-02-26T08:10:07.998Z,76.04
2023-02-26T08:14:11.850Z,73.93
2023-02-26T08:18:13.848Z,73.74
2023-02-26T08:22:15.824Z,73.16
2023-02-26T08:26:18.338Z,72.88
2023-02-26T08:30:20.358Z,80.48
2023-02-26T08:34:22.416Z,68.84
2023-02-26T08:38:29.111Z,68.68
2023-02-26T08:42:31.168Z,70.05
2023-02-26T08:46:33.185Z,68.42
2023-02-26T08:50:35.211Z,69.77
2023-02-26T08:54:37.205Z,68.38
2023-02-26T08:58:39.635Z,69.35
2023-02-26T09:02:42.382Z,69.61
2023-02-26T09:06:44.394Z,67.93
2023-02-26T09:10:47.094Z,67.19
2023-02-26T09:14:49.133Z,65.99
2023-02-26T09:18:51.267Z,66.32
2023-02-26T09:22:53.302Z,66.85
2023-02-26T09:26:55.317Z,66.81
2023-02-26T09:30:57.389Z,65.31
2023-02-26T09:34:59.436Z,65.17
2023-02-26T09:39:01.450Z,64.72
2023-02-26T09:43:15.759Z,64.26
2023-02-26T09:47:23.716Z,64.91
2023-02-26T09:51:27.134Z,65.22
2023-02-26T09:55:39.945Z,63.79
2023-02-26T09:59:42.144Z,61.93
2023-02-26T10:04:12.573Z,60.28
2023-02-26T10:08:17.438Z,58.84
2023-02-26T10:12:22.844Z,58.40
2023-02-26T10:16:29.810Z,57.98
2023-02-26T10:20:43.360Z,58.73
2023-02-26T10:24:54.106Z,58.84
2023-02-26T10:29:33.767Z,59.55
2023-02-26T10:34:20.778Z,58.71
2023-02-26T10:38:30.418Z,57.78
2023-02-26T10:42:43.324Z,56.43
2023-02-26T10:47:03.571Z,56.97
2023-02-26T10:51:13.687Z,54.73
2023-02-26T10:55:42.573Z,55.05
2023-02-26T10:59:44.590Z,54.55
2023-02-26T11:03:49.093Z,53.88
2023-02-26T11:07:57.711Z,53.59
2023-02-26T11:12:12.767Z,54.49
2023-02-26T11:16:16.101Z,54.49
2023-02-26T11:20:39.392Z,55.59
2023-02-26T11:24:47.667Z,55.61
2023-02-26T11:28:53.554Z,54.74
2023-02-26T11:32:59.075Z,53.85
2023-02-26T11:37:02.122Z,54.02
2023-02-26T11:41:05.132Z,53.43
2023-02-26T11:45:07.962Z,53.75
2023-02-26T11:49:13.896Z,54.71
2023-02-26T11:53:40.562Z,53.97
2023-02-26T11:57:43.344Z,55.26
2023-02-26T12:01:46.500Z,55.89
2023-02-26T12:05:50.376Z,55.04
2023-02-26T12:09:52.438Z,55.78
2023-02-26T12:14:27.991Z,56.61
2023-02-26T12:18:50.160Z,54.53
2023-02-26T12:23:07.597Z,54.44
2023-02-26T12:27:09.565Z,55.21
2023-02-26T12:31:33.678Z,55.15
2023-02-26T12:36:10.780Z,55.05
2023-02-26T12:40:30.686Z,54.77
2023-02-26T12:44:57.681Z,55.31
2023-02-26T12:49:08.957Z,55.74
2023-02-26T12:53:35.740Z,56.06
2023-02-26T12:57:50.911Z,56.82
2023-02-26T13:02:24.686Z,57.60
2023-02-26T13:06:55.349Z,58.52
2023-02-26T13:11:06.181Z,58.01
2023-02-26T13:15:21.188Z,58.22
2023-02-26T13:19:48.326Z,58.08
2023-02-26T13:23:54.650Z,57.88
2023-02-26T13:28:01.127Z,57.73
2023-02-26T13:32:13.733Z,58.08
2023-02-26T13:36:16.784Z,57.19
2023-02-26T13:40:35.064Z,57.17
2023-02-26T13:45:03.390Z,57.85
2023-02-26T13:49:36.758Z,58.42
2023-02-26T13:53:46.550Z,56.92
2023-02-26T13:57:52.407Z,57.23
2023-02-26T14:01:57.868Z,55.81
2023-02-26T14:06:21.735Z,56.20
2023-02-26T14:10:44.508Z,55.45
2023-02-26T14:14:59.952Z,54.47
2023-02-26T14:19:28.263Z,52.62
2023-02-26T14:23:36.092Z,53.34
2023-02-26T14:27:40.489Z,52.44
2023-02-26T14:32:02.220Z,52.39
2023-02-26T14:36:06.380Z,51.35
2023-02-26T14:40:16.437Z,51.86
2023-02-26T14:44:23.686Z,52.32
2023-02-26T14:48:30.123Z,51.53
2023-02-26T14:53:06.075Z,51.34
2023-02-26T14:57:25.442Z,52.42
2023-02-26T15:02:02.944Z,51.49
2023-02-26T15:06:30.968Z,52.50
2023-02-26T15:10:51.152Z,52.23
2023-02-26T15:15:21.132Z,52.68
2023-02-26T15:19:49.340Z,52.17
2023-02-26T15:23:56.740Z,52.98
2023-02-26T15:27:58.812Z,52.87
2023-02-26T15:36:21.928Z,53.57
2023-02-26T15:40:25.890Z,53.85
2023-02-26T15:44:31.167Z,52.99
2023-02-26T15:48:38.370Z,53.09
2023-02-26T15:52:40.591Z,52.19
2023-02-26T15:56:42.617Z,51.86
2023-02-26T16:00:44.996Z,51.84
2023-02-26T16:04:47.672Z,52.10
2023-02-26T16:08:50.278Z,52.27
2023-02-26T16:12:53.628Z,52.78
2023-02-26T16:16:56.790Z,52.77
2023-02-26T16:21:01.332Z,52.13
2023-02-26T16:25:15.372Z,55.29
2023-02-26T16:29:27.024Z,55.05
2023-02-26T16:33:33.456Z,53.00
2023-02-26T16:37:38.920Z,53.07
2023-02-26T16:41:41.448Z,53.14
2023-02-26T16:45:50.734Z,53.81
2023-02-26T16:49:53.045Z,54.23
2023-02-26T16:53:59.449Z,54.15
2023-02-26T16:58:07.070Z,54.66
2023-02-26T17:02:18.483Z,54.79
2023-02-26T17:06:22.308Z,55.32
2023-02-26T17:10:34.643Z,55.87
2023-02-26T17:14:40.953Z,56.50
2023-02-26T17:18:42.996Z,56.00
2023-02-26T17:22:45.182Z,55.57
2023-02-26T17:26:48.256Z,55.68
2023-02-26T17:30:50.387Z,55.74
2023-02-26T17:34:53.201Z,56.22
2023-02-26T17:38:55.263Z,56.52
2023-02-26T17:42:58.058Z,56.38
2023-02-26T17:47:00.043Z,55.83
2023-02-26T17:51:02.081Z,56.83
2023-02-26T17:55:04.341Z,56.17
2023-02-26T17:59:07.056Z,55.49
2023-02-26T18:03:12.078Z,54.94
2023-02-26T18:07:16.386Z,55.26
2023-02-26T18:11:19.924Z,55.38
2023-02-26T18:15:21.920Z,55.54
2023-02-26T18:19:23.941Z,55.40
2023-02-26T18:23:26.029Z,55.91
2023-02-26T18:27:29.852Z,55.93
2023-02-26T18:31:35.793Z,56.09
2023-02-26T18:35:45.612Z,55.96
2023-02-26T18:39:48.373Z,55.78
2023-02-26T18:43:50.384Z,55.75
2023-02-26T18:47:52.384Z,55.78
2023-02-26T18:51:54.921Z,56.15
2023-02-26T18:55:58.116Z,57.27
2023-02-26T19:00:00.194Z,57.66
2023-02-26T19:04:02.240Z,57.87
2023-02-26T19:08:05.733Z,57.48
2023-02-26T19:12:09.327Z,57.97
2023-02-26T19:16:12.949Z,57.90
2023-02-26T19:20:15.046Z,57.92
2023-02-26T19:24:17.535Z,57.89
2023-02-26T19:28:19.604Z,58.31
2023-02-26T19:32:21.849Z,58.73
2023-02-26T19:36:24.581Z,58.55
2023-02-26T19:40:28.151Z,58.47
2023-02-26T19:44:32.473Z,59.01
2023-02-26T19:48:34.518Z,59.18
2023-02-26T19:52:37.351Z,60.60
2023-02-26T19:56:39.960Z,61.01
2023-02-26T20:00:42.693Z,60.28
2023-02-26T20:04:44.704Z,59.64
2023-02-26T20:08:47.416Z,59.48
2023-02-26T20:12:50.087Z,59.47
2023-02-26T20:16:52.383Z,59.79
2023-02-26T20:20:54.828Z,59.77
2023-02-26T20:24:56.881Z,60.27
2023-02-26T20:28:59.342Z,60.74
2023-02-26T20:33:01.473Z,61.43
2023-02-26T20:37:03.515Z,60.76
2023-02-26T20:41:05.880Z,61.11
2023-02-26T20:45:08.167Z,60.20
2023-02-26T20:49:11.582Z,60.20
2023-02-26T20:53:13.665Z,60.11
2023-02-26T20:57:15.964Z,60.01
2023-02-26T21:01:19.145Z,58.93
2023-02-26T21:05:21.574Z,59.52
2023-02-26T21:09:23.628Z,59.55
2023-02-26T21:13:25.684Z,59.81
2023-02-26T21:17:28.004Z,60.33
2023-02-26T21:21:31.052Z,59.73
2023-02-26T21:25:33.282Z,61.09
2023-02-26T21:29:35.363Z,60.27
2023-02-26T21:33:37.359Z,60.03
2023-02-26T21:37:39.326Z,60.60
2023-02-26T21:41:41.566Z,60.89
2023-02-26T21:45:44.268Z,60.97
2023-02-26T21:49:46.400Z,61.02
2023-02-26T21:53:49.627Z,61.31
2023-02-26T21:57:51.700Z,61.18
2023-02-26T22:01:54.038Z,61.45
2023-02-26T22:05:56.303Z,61.73
2023-02-26T22:09:58.315Z,61.86
2023-02-26T22:14:00.414Z,61.85
2023-02-26T22:18:02.713Z,62.27
2023-02-26T22:22:04.735Z,62.53
2023-02-26T22:26:06.798Z,62.43
2023-02-26T22:30:10.041Z,63.17
2023-02-26T22:34:12.048Z,62.94
2023-02-26T22:38:14.364Z,63.33
2023-02-26T22:42:16.560Z,63.56
2023-02-26T22:46:18.805Z,63.46
2023-02-26T22:50:20.845Z,63.47
2023-02-26T22:54:22.901Z,63.63
2023-02-26T22:58:25.095Z,63.34
2023-02-26T23:02:27.878Z,63.99
2023-02-26T23:06:29.906Z,64.25
2023-02-26T23:10:31.957Z,64.10
2023-02-26T23:14:34.170Z,64.18
2023-02-26T23:18:37.142Z,64.26
2023-02-26T23:22:39.866Z,64.34
2023-02-26T23:26:41.879Z,64.97
2023-02-26T23:30:44.912Z,73.88
2023-02-26T23:34:46.941Z,70.57
2023-02-26T23:38:48.938Z,67.79
2023-02-26T23:42:51.080Z,66.57
2023-02-26T23:46:53.090Z,66.03
2023-02-26T23:50:55.883Z,66.25
2023-02-26T23:54:58.123Z,65.96
2023-02-26T23:59:00.127Z,66.41
